N44CK KEUG-KAPC
Flight info
| Callsign | N44CK |
|---|---|
| Flight time | N/A |
| Altitude | 33000 |
| Route | RBG SGD |
| Aircraft | C525/L-SDFGRWY/S |
Departure
| Time | N/A |
|---|---|
| Airport | Eugene Airport (KEUG) |
Arrival
| Time | 2026-05-09 03:01 |
|---|---|
| Airport | Napa County Airport (KAPC) |
| Time | Latitude | Longitude | Altitude | Speed | Heading |
|---|---|---|---|---|---|
| 2026-05-09 02:26 | 40.81257 | -122.75647 | 33186 ft | 399 kts | 180° |
| 2026-05-09 02:27 | 40.75785 | -122.74323 | 33167 ft | 399 kts | 179° |
| 2026-05-09 02:27 | 40.70306 | -122.73000 | 33165 ft | 399 kts | 179° |
| 2026-05-09 02:28 | 40.64825 | -122.71678 | 33157 ft | 399 kts | 179° |
| 2026-05-09 02:28 | 40.59357 | -122.70362 | 33148 ft | 400 kts | 179° |
| 2026-05-09 02:29 | 40.53907 | -122.69052 | 33141 ft | 400 kts | 179° |
| 2026-05-09 02:29 | 40.48420 | -122.67736 | 33140 ft | 400 kts | 179° |
| 2026-05-09 02:30 | 40.42960 | -122.66428 | 33125 ft | 400 kts | 179° |
| 2026-05-09 02:30 | 40.37463 | -122.65114 | 33104 ft | 401 kts | 179° |
| 2026-05-09 02:31 | 40.31975 | -122.63805 | 33093 ft | 402 kts | 179° |
| 2026-05-09 02:31 | 40.29250 | -122.63154 | 32840 ft | 399 kts | 179° |
| 2026-05-09 02:31 | 40.26530 | -122.62501 | 32571 ft | 392 kts | 179° |
| 2026-05-09 02:31 | 40.23875 | -122.61865 | 32303 ft | 386 kts | 179° |
| 2026-05-09 02:32 | 40.21246 | -122.61237 | 32034 ft | 382 kts | 179° |
| 2026-05-09 02:32 | 40.18643 | -122.60617 | 31762 ft | 379 kts | 179° |
| 2026-05-09 02:32 | 40.16042 | -122.60000 | 31237 ft | 376 kts | 179° |
| 2026-05-09 02:32 | 40.13490 | -122.59394 | 30711 ft | 372 kts | 179° |
| 2026-05-09 02:33 | 40.10962 | -122.58794 | 30189 ft | 368 kts | 178° |
| 2026-05-09 02:33 | 40.08431 | -122.58195 | 29664 ft | 364 kts | 178° |
| 2026-05-09 02:33 | 40.05959 | -122.57610 | 29143 ft | 361 kts | 178° |
| 2026-05-09 02:33 | 40.03484 | -122.57025 | 28619 ft | 358 kts | 178° |
| 2026-05-09 02:34 | 40.01061 | -122.56452 | 28104 ft | 355 kts | 177° |
| 2026-05-09 02:34 | 39.98647 | -122.55883 | 27591 ft | 353 kts | 177° |
| 2026-05-09 02:34 | 39.96212 | -122.55309 | 27068 ft | 350 kts | 176° |
| 2026-05-09 02:34 | 39.93847 | -122.54752 | 26556 ft | 348 kts | 176° |
| 2026-05-09 02:35 | 39.91470 | -122.54193 | 26041 ft | 346 kts | 176° |
| 2026-05-09 02:35 | 39.89124 | -122.53641 | 25529 ft | 343 kts | 176° |
| 2026-05-09 02:35 | 39.86774 | -122.53088 | 25015 ft | 341 kts | 175° |
| 2026-05-09 02:35 | 39.84440 | -122.52539 | 24504 ft | 339 kts | 175° |
| 2026-05-09 02:36 | 39.82135 | -122.51998 | 23984 ft | 337 kts | 175° |
| 2026-05-09 02:36 | 39.79819 | -122.51454 | 23460 ft | 335 kts | 175° |
| 2026-05-09 02:36 | 39.77541 | -122.50920 | 22947 ft | 334 kts | 175° |
| 2026-05-09 02:36 | 39.75281 | -122.50390 | 22444 ft | 332 kts | 175° |
| 2026-05-09 02:37 | 39.72961 | -122.49847 | 21922 ft | 330 kts | 174° |
| 2026-05-09 02:37 | 39.70695 | -122.49316 | 21420 ft | 328 kts | 174° |
| 2026-05-09 02:37 | 39.68472 | -122.48796 | 20926 ft | 326 kts | 173° |
| 2026-05-09 02:37 | 39.66239 | -122.48274 | 20430 ft | 325 kts | 173° |
| 2026-05-09 02:38 | 39.64009 | -122.47753 | 19928 ft | 323 kts | 173° |
| 2026-05-09 02:38 | 39.61811 | -122.47240 | 19435 ft | 322 kts | 172° |
| 2026-05-09 02:38 | 39.59610 | -122.46725 | 18945 ft | 319 kts | 172° |
| 2026-05-09 02:38 | 39.57422 | -122.46215 | 18448 ft | 316 kts | 171° |
| 2026-05-09 02:39 | 39.55291 | -122.45718 | 17952 ft | 310 kts | 171° |
| 2026-05-09 02:39 | 39.53202 | -122.45231 | 17456 ft | 303 kts | 171° |
| 2026-05-09 02:39 | 39.51128 | -122.44747 | 16957 ft | 300 kts | 171° |
| 2026-05-09 02:39 | 39.49080 | -122.44271 | 16457 ft | 297 kts | 171° |
| 2026-05-09 02:40 | 39.47048 | -122.43799 | 15971 ft | 295 kts | 171° |
| 2026-05-09 02:40 | 39.45016 | -122.43327 | 15486 ft | 293 kts | 171° |
| 2026-05-09 02:40 | 39.43037 | -122.42867 | 15023 ft | 292 kts | 170° |
| 2026-05-09 02:40 | 39.41045 | -122.42404 | 14541 ft | 290 kts | 171° |
| 2026-05-09 02:41 | 39.39067 | -122.41946 | 14055 ft | 289 kts | 170° |
| 2026-05-09 02:41 | 39.37091 | -122.41487 | 13563 ft | 287 kts | 170° |
| 2026-05-09 02:41 | 39.35142 | -122.41035 | 13084 ft | 285 kts | 170° |
| 2026-05-09 02:41 | 39.33196 | -122.40585 | 12603 ft | 284 kts | 170° |
| 2026-05-09 02:42 | 39.31229 | -122.40130 | 12116 ft | 282 kts | 170° |
| 2026-05-09 02:42 | 39.29324 | -122.39689 | 11633 ft | 278 kts | 170° |
| 2026-05-09 02:42 | 39.27426 | -122.39250 | 11152 ft | 275 kts | 169° |
| 2026-05-09 02:42 | 39.25576 | -122.38822 | 10677 ft | 272 kts | 169° |
| 2026-05-09 02:43 | 39.23714 | -122.38392 | 10192 ft | 269 kts | 169° |
| 2026-05-09 02:43 | 39.21888 | -122.37970 | 9731 ft | 267 kts | 169° |
| 2026-05-09 02:43 | 39.20063 | -122.37550 | 9248 ft | 265 kts | 169° |
| 2026-05-09 02:43 | 39.18244 | -122.37130 | 8764 ft | 263 kts | 168° |
| 2026-05-09 02:44 | 39.16441 | -122.36714 | 8291 ft | 262 kts | 168° |
| 2026-05-09 02:44 | 39.14643 | -122.36300 | 7797 ft | 261 kts | 168° |
| 2026-05-09 02:44 | 39.12875 | -122.35892 | 7315 ft | 260 kts | 168° |
| 2026-05-09 02:44 | 39.11084 | -122.35480 | 7004 ft | 252 kts | 168° |
| 2026-05-09 02:45 | 39.09394 | -122.35092 | 6952 ft | 240 kts | 168° |
| 2026-05-09 02:45 | 39.07718 | -122.34706 | 6962 ft | 252 kts | 169° |
| 2026-05-09 02:45 | 39.05956 | -122.34300 | 6970 ft | 260 kts | 169° |
| 2026-05-09 02:45 | 39.04148 | -122.33883 | 6969 ft | 265 kts | 169° |
| 2026-05-09 02:46 | 39.02307 | -122.33460 | 6961 ft | 266 kts | 169° |
| 2026-05-09 02:46 | 39.00476 | -122.33041 | 6969 ft | 261 kts | 168° |
| 2026-05-09 02:46 | 38.98734 | -122.32642 | 6951 ft | 252 kts | 168° |
| 2026-05-09 02:46 | 38.96999 | -122.32245 | 6960 ft | 246 kts | 169° |
| 2026-05-09 02:47 | 38.95316 | -122.31860 | 6958 ft | 241 kts | 169° |
| 2026-05-09 02:47 | 38.93668 | -122.31482 | 6968 ft | 242 kts | 169° |
| 2026-05-09 02:47 | 38.91983 | -122.31096 | 6970 ft | 243 kts | 169° |
| 2026-05-09 02:47 | 38.90308 | -122.30711 | 6972 ft | 244 kts | 169° |
| 2026-05-09 02:48 | 38.88624 | -122.30326 | 6963 ft | 245 kts | 169° |
| 2026-05-09 02:48 | 38.86897 | -122.30172 | 6976 ft | 246 kts | 181° |
| 2026-05-09 02:48 | 38.85181 | -122.30312 | 6976 ft | 247 kts | 184° |
| 2026-05-09 02:48 | 38.83451 | -122.30512 | 6744 ft | 251 kts | 185° |
| 2026-05-09 02:49 | 38.81706 | -122.30725 | 6503 ft | 252 kts | 185° |
| 2026-05-09 02:49 | 38.79971 | -122.30938 | 6258 ft | 253 kts | 185° |
| 2026-05-09 02:49 | 38.78196 | -122.31153 | 6015 ft | 253 kts | 185° |
| 2026-05-09 02:49 | 38.76465 | -122.31361 | 5907 ft | 247 kts | 185° |
| 2026-05-09 02:50 | 38.74773 | -122.31562 | 5883 ft | 239 kts | 185° |
| 2026-05-09 02:50 | 38.73140 | -122.31754 | 5873 ft | 235 kts | 185° |
| 2026-05-09 02:50 | 38.71491 | -122.31947 | 5881 ft | 237 kts | 185° |
| 2026-05-09 02:50 | 38.69823 | -122.32142 | 5889 ft | 240 kts | 185° |
| 2026-05-09 02:51 | 38.68157 | -122.32336 | 5892 ft | 242 kts | 185° |
| 2026-05-09 02:51 | 38.66450 | -122.32533 | 5894 ft | 244 kts | 185° |
| 2026-05-09 02:51 | 38.64745 | -122.32730 | 5898 ft | 246 kts | 185° |
| 2026-05-09 02:51 | 38.63031 | -122.32928 | 5895 ft | 247 kts | 185° |
| 2026-05-09 02:52 | 38.61337 | -122.33124 | 5885 ft | 245 kts | 185° |
| 2026-05-09 02:52 | 38.59621 | -122.33321 | 5897 ft | 243 kts | 185° |
| 2026-05-09 02:52 | 38.57936 | -122.33515 | 5896 ft | 242 kts | 185° |
| 2026-05-09 02:52 | 38.56279 | -122.33706 | 5886 ft | 240 kts | 185° |
| 2026-05-09 02:53 | 38.54602 | -122.33899 | 5884 ft | 239 kts | 185° |
| 2026-05-09 02:53 | 38.52951 | -122.34088 | 5878 ft | 238 kts | 185° |
| 2026-05-09 02:53 | 38.51285 | -122.34280 | 5880 ft | 237 kts | 185° |
| 2026-05-09 02:53 | 38.49692 | -122.34463 | 5873 ft | 223 kts | 185° |
| 2026-05-09 02:54 | 38.48158 | -122.34566 | 5513 ft | 222 kts | 180° |
| 2026-05-09 02:54 | 38.46598 | -122.34506 | 5036 ft | 226 kts | 178° |
| 2026-05-09 02:54 | 38.45013 | -122.34404 | 4550 ft | 228 kts | 178° |
| 2026-05-09 02:54 | 38.43416 | -122.34293 | 4061 ft | 230 kts | 178° |
| 2026-05-09 02:55 | 38.41835 | -122.34180 | 3725 ft | 223 kts | 178° |
| 2026-05-09 02:55 | 38.40344 | -122.34042 | 3631 ft | 207 kts | 172° |
| 2026-05-09 02:55 | 38.38971 | -122.33417 | 3165 ft | 214 kts | 155° |
| 2026-05-09 02:55 | 38.37658 | -122.32536 | 2979 ft | 198 kts | 152° |
| 2026-05-09 02:56 | 38.36519 | -122.31715 | 2867 ft | 175 kts | 151° |
| 2026-05-09 02:56 | 38.35598 | -122.31043 | 2876 ft | 133 kts | 150° |
| 2026-05-09 02:56 | 38.34796 | -122.30457 | 2486 ft | 132 kts | 151° |
| 2026-05-09 02:56 | 38.34031 | -122.29900 | 2238 ft | 122 kts | 153° |
| 2026-05-09 02:57 | 38.33304 | -122.29372 | 2090 ft | 118 kts | 153° |
| 2026-05-09 02:57 | 38.32582 | -122.28852 | 1959 ft | 118 kts | 154° |
| 2026-05-09 02:57 | 38.31869 | -122.28340 | 1867 ft | 115 kts | 154° |
| 2026-05-09 02:57 | 38.31191 | -122.27853 | 1842 ft | 108 kts | 155° |
| 2026-05-09 02:58 | 38.30539 | -122.27430 | 1826 ft | 100 kts | 168° |
| 2026-05-09 02:58 | 38.29841 | -122.27280 | 1718 ft | 104 kts | 180° |
| 2026-05-09 02:58 | 38.29095 | -122.27189 | 1654 ft | 110 kts | 181° |
| 2026-05-09 02:58 | 38.28325 | -122.27141 | 1572 ft | 111 kts | 184° |
| 2026-05-09 02:59 | 38.27545 | -122.27131 | 1402 ft | 109 kts | 184° |
| 2026-05-09 02:59 | 38.26805 | -122.27134 | 1127 ft | 104 kts | 185° |
| 2026-05-09 02:59 | 38.26101 | -122.27168 | 889 ft | 101 kts | 186° |
| 2026-05-09 02:59 | 38.25420 | -122.27207 | 708 ft | 97 kts | 186° |
| 2026-05-09 03:00 | 38.24751 | -122.27243 | 584 ft | 94 kts | 184° |
| 2026-05-09 03:00 | 38.24078 | -122.27266 | 482 ft | 97 kts | 184° |
| 2026-05-09 03:00 | 38.23410 | -122.27333 | 317 ft | 95 kts | 192° |
| 2026-05-09 03:00 | 38.22788 | -122.27574 | 177 ft | 92 kts | 201° |
| 2026-05-09 03:01 | 38.22199 | -122.27855 | 41 ft | 86 kts | 199° |
| 2026-05-09 03:01 | 38.21702 | -122.28094 | 24 ft | 64 kts | 200° |
| 2026-05-09 03:01 | 38.21379 | -122.28250 | 21 ft | 37 kts | 200° |
| 2026-05-09 03:01 | 38.21175 | -122.28347 | 19 ft | 27 kts | 199° |
| 2026-05-09 03:02 | 38.21016 | -122.28423 | 18 ft | 19 kts | 199° |
| 2026-05-09 03:02 | 38.20969 | -122.28391 | 18 ft | 10 kts | 78° |
| 2026-05-09 03:02 | 38.20990 | -122.28281 | 19 ft | 14 kts | 78° |
| 2026-05-09 03:02 | 38.21012 | -122.28163 | 20 ft | 13 kts | 78° |
| 2026-05-09 03:03 | 38.21034 | -122.28043 | 22 ft | 13 kts | 77° |
| 2026-05-09 03:03 | 38.21056 | -122.27924 | 23 ft | 13 kts | 77° |
| 2026-05-09 03:03 | 38.21077 | -122.27805 | 25 ft | 15 kts | 79° |
| 2026-05-09 03:03 | 38.21104 | -122.27662 | 27 ft | 18 kts | 77° |
| 2026-05-09 03:04 | 38.21134 | -122.27504 | 30 ft | 17 kts | 77° |
| 2026-05-09 03:04 | 38.21161 | -122.27361 | 32 ft | 15 kts | 77° |
| 2026-05-09 03:04 | 38.21184 | -122.27242 | 34 ft | 10 kts | 62° |
| 2026-05-09 03:04 | 38.21246 | -122.27258 | 33 ft | 8 kts | 350° |
| 2026-05-09 03:05 | 38.21277 | -122.27203 | 34 ft | 7 kts | 63° |
| 2026-05-09 03:05 | 38.21297 | -122.27155 | 34 ft | 5 kts | 64° |
| 2026-05-09 03:05 | 38.21318 | -122.27100 | 35 ft | 8 kts | 64° |
| 2026-05-09 03:05 | 38.21347 | -122.27030 | 36 ft | 8 kts | 63° |
| 2026-05-09 03:06 | 38.21369 | -122.26970 | 37 ft | 7 kts | 89° |
| 2026-05-09 03:06 | 38.21337 | -122.26942 | 37 ft | 4 kts | 160° |
| 2026-05-09 03:06 | 38.21306 | -122.26922 | 37 ft | 6 kts | 152° |
| 2026-05-09 03:06 | 38.21268 | -122.26891 | 37 ft | 4 kts | 143° |
| 2026-05-09 03:07 | 38.21261 | -122.26892 | 37 ft | 1 kts | 315° |
| 2026-05-09 03:07 | 38.21262 | -122.26893 | 37 ft | 0 kts | 333° |